createdAt,value
2023-01-06T00:04:18.045Z,21.00
2023-01-06T00:09:38.149Z,21.00
2023-01-06T00:14:58.118Z,21.00
2023-01-06T00:20:18.401Z,21.00
2023-01-06T00:25:38.501Z,21.00
2023-01-06T00:30:58.662Z,21.10
2023-01-06T00:36:18.907Z,21.10
2023-01-06T00:41:39.112Z,21.10
2023-01-06T00:46:59.201Z,21.20
2023-01-06T00:52:19.426Z,21.10
2023-01-06T00:57:39.606Z,21.20
2023-01-06T01:02:59.757Z,21.10
2023-01-06T01:08:19.821Z,21.10
2023-01-06T01:13:39.993Z,21.10
2023-01-06T01:19:00.069Z,21.10
2023-01-06T01:24:20.297Z,21.10
2023-01-06T01:29:40.376Z,21.10
2023-01-06T01:35:00.533Z,21.00
2023-01-06T01:40:20.724Z,21.00
2023-01-06T01:45:40.965Z,21.10
2023-01-06T01:51:01.091Z,21.00
2023-01-06T01:56:21.203Z,21.00
2023-01-06T02:01:41.513Z,21.00
2023-01-06T02:07:01.609Z,21.00
2023-01-06T02:12:21.780Z,21.00
2023-01-06T02:17:41.794Z,21.00
2023-01-06T02:23:02.129Z,20.90
2023-01-06T02:28:22.315Z,21.00
2023-01-06T02:33:42.482Z,21.00
2023-01-06T02:39:02.577Z,21.00
2023-01-06T02:44:22.704Z,21.10
2023-01-06T02:49:42.830Z,21.20
2023-01-06T02:55:02.865Z,21.20
2023-01-06T03:00:23.004Z,21.30
2023-01-06T03:05:43.091Z,21.30
2023-01-06T03:11:03.212Z,21.30
2023-01-06T03:16:23.363Z,21.40
2023-01-06T03:21:43.333Z,21.30
2023-01-06T03:27:03.546Z,21.30
2023-01-06T03:32:23.653Z,21.30
2023-01-06T03:37:43.757Z,21.30
2023-01-06T03:43:03.924Z,21.20
2023-01-06T03:48:24.132Z,21.20
2023-01-06T03:53:44.339Z,21.20
2023-01-06T03:59:04.404Z,21.10
2023-01-06T04:04:24.380Z,21.10
2023-01-06T04:09:44.469Z,21.10
2023-01-06T04:15:04.604Z,21.10
2023-01-06T04:20:24.767Z,21.00
2023-01-06T04:25:45.086Z,21.10
2023-01-06T04:31:05.586Z,21.00
2023-01-06T04:36:25.680Z,21.00
2023-01-06T04:41:45.900Z,21.00
2023-01-06T04:47:06.069Z,21.00
2023-01-06T04:52:26.240Z,21.00
2023-01-06T04:57:46.344Z,21.00
2023-01-06T05:03:06.505Z,20.90
2023-01-06T05:08:26.611Z,20.90
2023-01-06T05:13:46.722Z,21.00
2023-01-06T05:19:06.757Z,21.00
2023-01-06T05:24:27.002Z,21.00
2023-01-06T05:29:47.087Z,21.10
2023-01-06T05:35:07.383Z,21.30
2023-01-06T05:40:27.397Z,21.40
2023-01-06T05:45:47.686Z,21.50
2023-01-06T05:51:07.846Z,21.50
2023-01-06T05:56:28.104Z,21.60
2023-01-06T06:01:48.240Z,21.60
2023-01-06T06:07:08.397Z,21.60
2023-01-06T06:12:28.475Z,21.50
2023-01-06T06:17:48.571Z,21.50
2023-01-06T06:23:08.676Z,21.40
2023-01-06T06:28:28.876Z,21.40
2023-01-06T06:33:48.981Z,21.40
2023-01-06T06:39:09.126Z,21.30
2023-01-06T06:44:29.034Z,21.30
2023-01-06T06:49:49.260Z,21.20
2023-01-06T06:55:09.335Z,21.20
2023-01-06T07:00:29.612Z,21.20
2023-01-06T07:05:49.713Z,21.10
2023-01-06T07:11:09.912Z,21.10
2023-01-06T07:16:30.058Z,21.10
2023-01-06T07:21:50.265Z,21.10
2023-01-06T07:27:10.416Z,21.10
2023-01-06T07:32:30.452Z,21.00
2023-01-06T07:37:50.678Z,21.00
2023-01-06T07:43:10.708Z,21.00
2023-01-06T07:48:30.867Z,21.00
2023-01-06T07:53:50.870Z,21.00
2023-01-06T07:59:10.909Z,21.00
2023-01-06T08:04:31.063Z,21.00
2023-01-06T08:09:51.298Z,21.00
2023-01-06T08:15:11.362Z,21.00
2023-01-06T08:20:31.411Z,21.00
2023-01-06T08:25:51.428Z,21.00
2023-01-06T08:31:11.635Z,21.10
2023-01-06T08:36:31.600Z,21.10
2023-01-06T08:41:51.760Z,21.20
2023-01-06T08:47:11.764Z,21.20
2023-01-06T08:52:32.017Z,21.20
2023-01-06T08:57:54.726Z,21.20
2023-01-06T09:03:15.317Z,21.20
2023-01-06T09:08:35.380Z,21.20
2023-01-06T09:13:55.553Z,21.20
2023-01-06T09:19:15.473Z,21.20
2023-01-06T09:24:35.724Z,21.10
2023-01-06T09:29:55.812Z,21.10
2023-01-06T09:35:15.889Z,21.10
2023-01-06T09:40:35.881Z,21.10
2023-01-06T09:45:56.038Z,21.00
2023-01-06T09:51:16.026Z,21.00
2023-01-06T09:56:36.175Z,21.00
2023-01-06T10:01:56.522Z,21.00
2023-01-06T10:07:16.420Z,21.00
2023-01-06T10:12:36.512Z,21.00
2023-01-06T10:17:56.638Z,21.00
2023-01-06T10:23:16.768Z,21.00
2023-01-06T10:28:37.052Z,20.90
2023-01-06T10:33:57.211Z,20.90
2023-01-06T10:39:17.500Z,20.90
2023-01-06T10:44:37.700Z,20.90
2023-01-06T10:49:57.879Z,20.90
2023-01-06T10:55:17.920Z,20.90
2023-01-06T11:00:38.159Z,21.00
2023-01-06T11:05:58.248Z,21.10
2023-01-06T11:11:33.652Z,21.10
2023-01-06T11:16:53.656Z,21.10
2023-01-06T11:22:13.859Z,21.20
2023-01-06T11:27:33.843Z,21.20
2023-01-06T11:32:53.993Z,21.20
2023-01-06T11:38:14.303Z,21.20
2023-01-06T11:43:34.402Z,21.10
2023-01-06T11:48:54.412Z,21.10
2023-01-06T11:54:14.595Z,21.10
2023-01-06T11:59:34.758Z,21.10
2023-01-06T12:04:54.955Z,21.00
2023-01-06T12:10:15.200Z,21.00
2023-01-06T12:15:35.449Z,21.10
2023-01-06T12:20:55.490Z,21.00
2023-01-06T12:26:15.646Z,21.00
2023-01-06T12:31:35.799Z,21.00
2023-01-06T12:36:55.931Z,21.00
2023-01-06T12:42:16.167Z,21.00
2023-01-06T12:47:36.350Z,21.00
2023-01-06T12:52:56.377Z,21.00
2023-01-06T12:58:18.277Z,21.00
2023-01-06T13:03:38.567Z,20.90
2023-01-06T13:08:58.792Z,20.90
2023-01-06T13:14:18.664Z,20.90
2023-01-06T13:19:38.903Z,20.90
2023-01-06T13:24:59.153Z,20.90
2023-01-06T13:30:19.328Z,20.90
2023-01-06T13:35:39.387Z,20.90
2023-01-06T13:40:59.543Z,20.90
2023-01-06T13:46:19.728Z,21.00
2023-01-06T13:51:39.850Z,21.00
2023-01-06T13:57:00.007Z,21.00
2023-01-06T14:02:20.230Z,21.00
2023-01-06T14:07:40.269Z,21.00
2023-01-06T14:13:00.433Z,21.00
2023-01-06T14:18:22.053Z,21.00
2023-01-06T14:23:42.185Z,21.00
2023-01-06T14:29:02.403Z,21.00
2023-01-06T14:34:22.624Z,21.00
2023-01-06T14:39:42.890Z,20.90
2023-01-06T14:45:02.999Z,20.90
2023-01-06T14:50:23.301Z,20.90
2023-01-06T14:55:43.311Z,20.90
2023-01-06T15:01:03.612Z,20.90
2023-01-06T15:06:23.647Z,20.90
2023-01-06T15:11:43.873Z,20.90
2023-01-06T15:17:04.013Z,20.90
2023-01-06T15:22:24.137Z,20.90
2023-01-06T15:27:44.264Z,20.90
2023-01-06T15:33:04.351Z,20.80
2023-01-06T15:38:24.414Z,20.90
2023-01-06T15:43:44.566Z,20.90
2023-01-06T15:49:04.605Z,21.00
2023-01-06T15:54:24.828Z,21.00
2023-01-06T15:59:44.974Z,21.10
2023-01-06T16:05:05.270Z,21.10
2023-01-06T16:10:25.319Z,21.20
2023-01-06T16:15:45.618Z,21.20
2023-01-06T16:21:05.754Z,21.20
2023-01-06T16:26:25.883Z,21.20
2023-01-06T16:31:45.913Z,21.20
2023-01-06T16:37:07.021Z,21.20
2023-01-06T16:42:27.024Z,21.20
2023-01-06T16:47:47.144Z,21.10
2023-01-06T16:53:07.228Z,21.10
2023-01-06T16:58:27.231Z,21.10
2023-01-06T17:03:47.360Z,21.00
2023-01-06T17:09:07.536Z,21.00
2023-01-06T17:14:27.621Z,21.00
2023-01-06T17:19:47.812Z,21.00
2023-01-06T17:25:07.951Z,21.00
2023-01-06T17:30:28.131Z,21.00
2023-01-06T17:35:48.184Z,21.00
2023-01-06T17:41:08.370Z,21.00
2023-01-06T17:46:28.432Z,21.00
2023-01-06T17:51:48.657Z,21.00
2023-01-06T17:57:08.793Z,20.90
2023-01-06T18:02:29.028Z,20.90
2023-01-06T18:07:49.208Z,21.00
2023-01-06T18:13:09.277Z,20.90
2023-01-06T18:18:29.316Z,21.00
2023-01-06T18:23:49.505Z,21.00
2023-01-06T18:29:09.637Z,21.10
2023-01-06T18:34:29.875Z,21.10
2023-01-06T18:39:50.034Z,21.10
2023-01-06T18:45:10.337Z,21.10
2023-01-06T18:50:30.480Z,21.20
2023-01-06T18:55:50.809Z,21.20
2023-01-06T19:01:11.012Z,21.20
2023-01-06T19:06:31.288Z,21.20
2023-01-06T19:11:52.666Z,21.20
2023-01-06T19:17:13.711Z,21.10
2023-01-06T19:22:33.871Z,21.10
2023-01-06T19:27:54.270Z,21.10
2023-01-06T19:33:14.798Z,21.10
2023-01-06T19:38:35.060Z,21.10
2023-01-06T19:43:55.375Z,21.10
2023-01-06T19:49:15.501Z,21.10
2023-01-06T19:54:35.540Z,21.10
2023-01-06T19:59:55.768Z,21.10
2023-01-06T20:05:15.979Z,21.10
2023-01-06T20:10:36.157Z,21.10
2023-01-06T20:15:56.296Z,21.10
2023-01-06T20:21:16.569Z,21.10
2023-01-06T20:26:36.714Z,21.10
2023-01-06T20:31:56.844Z,21.10
2023-01-06T20:37:16.833Z,21.10
2023-01-06T20:42:37.057Z,21.10
2023-01-06T20:47:57.156Z,21.10
2023-01-06T20:53:17.331Z,21.10
2023-01-06T20:58:37.471Z,21.10
2023-01-06T21:03:57.576Z,21.10
2023-01-06T21:09:17.618Z,21.20
2023-01-06T21:14:37.750Z,21.20
2023-01-06T21:19:57.926Z,21.30
2023-01-06T21:25:18.015Z,21.30
2023-01-06T21:30:38.263Z,21.30
2023-01-06T21:35:58.508Z,21.30
2023-01-06T21:41:18.709Z,21.30
2023-01-06T21:46:38.925Z,21.30
2023-01-06T21:51:59.102Z,21.40
2023-01-06T21:57:19.187Z,21.40
2023-01-06T22:02:39.397Z,21.40
2023-01-06T22:07:59.389Z,21.40
2023-01-06T22:13:19.616Z,21.40
2023-01-06T22:18:39.699Z,21.30
2023-01-06T22:23:59.875Z,21.30
2023-01-06T22:29:19.954Z,21.30
2023-01-06T22:34:40.132Z,21.30
2023-01-06T22:40:00.197Z,21.30
2023-01-06T22:45:20.378Z,21.30
2023-01-06T22:50:40.557Z,21.30
2023-01-06T22:56:00.730Z,21.30
2023-01-06T23:01:20.964Z,21.30
2023-01-06T23:06:40.972Z,21.30
2023-01-06T23:12:00.985Z,21.30
2023-01-06T23:17:21.056Z,21.30
2023-01-06T23:22:41.038Z,21.30
2023-01-06T23:28:01.118Z,21.20
2023-01-06T23:33:21.244Z,21.30
2023-01-06T23:38:41.488Z,21.30
2023-01-06T23:44:01.741Z,21.30
2023-01-06T23:49:21.922Z,21.20
2023-01-06T23:54:42.023Z,21.20
